createdAt,value
2023-05-09T00:00:32.176Z,13.08
2023-05-09T00:03:33.646Z,13.14
2023-05-09T00:06:35.419Z,13.15
2023-05-09T00:09:36.897Z,13.09
2023-05-09T00:12:38.452Z,13.10
2023-05-09T00:15:39.951Z,13.09
2023-05-09T00:18:42.278Z,13.06
2023-05-09T00:21:43.828Z,13.09
2023-05-09T00:24:45.302Z,13.07
2023-05-09T00:27:46.766Z,13.11
2023-05-09T00:30:48.217Z,13.18
2023-05-09T00:33:49.705Z,13.19
2023-05-09T00:36:51.214Z,13.17
2023-05-09T00:39:52.647Z,13.13
2023-05-09T00:42:55.921Z,13.04
2023-05-09T00:45:57.731Z,13.01
2023-05-09T00:48:59.363Z,13.00
2023-05-09T00:52:02.230Z,12.97
2023-05-09T00:55:05.398Z,12.92
2023-05-09T00:58:06.880Z,12.93
2023-05-09T01:01:08.762Z,12.90
2023-05-09T01:04:11.364Z,12.86
2023-05-09T01:07:43.556Z,12.85
2023-05-09T01:11:01.208Z,12.82
2023-05-09T01:14:15.449Z,12.83
2023-05-09T01:17:32.346Z,12.89
2023-05-09T01:20:39.578Z,12.90
2023-05-09T01:23:44.241Z,12.88
2023-05-09T01:27:04.373Z,12.95
2023-05-09T01:30:09.147Z,13.00
2023-05-09T01:33:16.825Z,13.03
2023-05-09T01:36:21.398Z,13.03
2023-05-09T01:39:25.281Z,13.00
2023-05-09T01:42:30.830Z,12.92
2023-05-09T01:45:33.988Z,12.84
2023-05-09T01:48:37.829Z,12.77
2023-05-09T01:51:43.704Z,12.68
2023-05-09T01:54:48.122Z,12.59
2023-05-09T01:57:50.309Z,12.56
2023-05-09T02:00:52.856Z,12.45
2023-05-09T02:03:55.925Z,12.35
2023-05-09T02:06:58.894Z,12.31
2023-05-09T02:10:00.903Z,12.30
2023-05-09T02:13:02.420Z,12.20
2023-05-09T02:16:05.984Z,12.16
2023-05-09T02:19:07.888Z,12.12
2023-05-09T02:22:11.665Z,12.10
2023-05-09T02:25:17.117Z,12.12
2023-05-09T02:28:20.808Z,12.05
2023-05-09T02:31:23.987Z,11.98
2023-05-09T02:34:25.816Z,11.92
2023-05-09T02:37:28.000Z,11.91
2023-05-09T02:40:30.424Z,11.89
2023-05-09T02:43:31.943Z,11.86
2023-05-09T02:46:33.473Z,11.74
2023-05-09T02:49:35.001Z,11.67
2023-05-09T02:52:38.685Z,11.60
2023-05-09T02:55:40.200Z,11.58
2023-05-09T02:58:41.702Z,11.64
2023-05-09T03:01:43.204Z,11.59
2023-05-09T03:04:45.496Z,11.53
2023-05-09T03:07:47.320Z,11.59
2023-05-09T03:10:48.818Z,11.63
2023-05-09T03:13:50.957Z,11.66
2023-05-09T03:16:52.536Z,11.66
2023-05-09T03:20:02.384Z,11.60
2023-05-09T03:23:05.586Z,11.60
2023-05-09T03:26:07.097Z,11.63
2023-05-09T03:29:08.660Z,11.70
2023-05-09T03:32:10.170Z,11.80
2023-05-09T03:35:11.951Z,11.89
2023-05-09T03:38:13.444Z,11.99
2023-05-09T03:41:16.849Z,12.03
2023-05-09T03:44:20.525Z,12.05
2023-05-09T03:47:21.965Z,12.04
2023-05-09T03:50:24.046Z,12.07
2023-05-09T03:53:27.554Z,12.18
2023-05-09T03:56:29.848Z,12.25
2023-05-09T03:59:31.664Z,12.28
2023-05-09T04:02:34.406Z,12.24
2023-05-09T04:05:36.237Z,12.23
2023-05-09T04:08:39.651Z,12.29
2023-05-09T04:11:42.072Z,12.33
2023-05-09T04:14:48.895Z,12.38
2023-05-09T04:17:51.410Z,12.42
2023-05-09T04:20:53.525Z,12.49
2023-05-09T04:23:55.637Z,12.57
2023-05-09T04:27:04.892Z,12.58
2023-05-09T04:30:07.253Z,12.64
2023-05-09T04:33:09.392Z,12.69
2023-05-09T04:36:11.279Z,12.78
2023-05-09T04:39:13.295Z,12.83
2023-05-09T04:42:22.830Z,12.92
2023-05-09T04:45:24.448Z,12.95
2023-05-09T04:48:26.112Z,12.98
2023-05-09T04:51:27.566Z,13.09
2023-05-09T04:54:29.154Z,13.16
2023-05-09T04:57:30.851Z,13.19
2023-05-09T05:00:33.449Z,13.23
2023-05-09T05:03:35.025Z,13.23
2023-05-09T05:06:36.611Z,13.29
2023-05-09T05:09:39.056Z,13.35
2023-05-09T05:12:40.824Z,13.43
2023-05-09T05:15:45.310Z,13.52
2023-05-09T05:18:48.309Z,13.59
2023-05-09T05:21:50.659Z,13.67
2023-05-09T05:24:52.435Z,13.71
2023-05-09T05:27:54.283Z,13.79
2023-05-09T05:30:56.006Z,13.93
2023-05-09T05:33:57.542Z,14.02
2023-05-09T05:36:59.779Z,14.16
2023-05-09T05:40:01.461Z,14.29
2023-05-09T05:43:03.017Z,14.44
2023-05-09T05:46:06.286Z,14.55
2023-05-09T05:49:09.353Z,14.53
2023-05-09T05:52:10.851Z,14.60
2023-05-09T05:55:12.772Z,14.71
2023-05-09T05:58:14.692Z,14.82
2023-05-09T06:01:16.382Z,14.98
2023-05-09T06:04:18.083Z,15.06
2023-05-09T06:07:19.798Z,15.14
2023-05-09T06:10:21.596Z,15.24
2023-05-09T06:13:26.587Z,15.31
2023-05-09T06:16:35.416Z,15.34
2023-05-09T06:19:37.638Z,15.46
2023-05-09T06:22:39.500Z,15.61
2023-05-09T06:25:41.139Z,15.75
2023-05-09T06:28:42.614Z,15.93
2023-05-09T06:31:44.086Z,16.01
2023-05-09T06:34:45.630Z,16.07
2023-05-09T06:37:48.684Z,16.12
2023-05-09T06:40:50.800Z,16.25
2023-05-09T06:43:52.879Z,16.38
2023-05-09T06:46:54.433Z,16.63
2023-05-09T06:49:55.935Z,16.70
2023-05-09T06:52:57.410Z,16.73
2023-05-09T06:55:59.333Z,16.92
2023-05-09T06:59:00.891Z,17.07
2023-05-09T07:02:02.489Z,17.35
2023-05-09T07:05:04.293Z,17.49
2023-05-09T07:08:05.787Z,17.49
2023-05-09T07:11:07.270Z,17.41
2023-05-09T07:14:08.806Z,17.30
2023-05-09T07:17:22.134Z,17.34
2023-05-09T07:20:25.635Z,17.50
2023-05-09T07:23:27.118Z,17.56
2023-05-09T07:26:28.779Z,17.61
2023-05-09T07:29:30.288Z,17.76
2023-05-09T07:32:32.067Z,17.85
2023-05-09T07:35:33.602Z,17.89
2023-05-09T07:38:35.137Z,18.16
2023-05-09T07:41:36.574Z,18.35
2023-05-09T07:44:38.033Z,18.51
2023-05-09T07:47:39.598Z,18.50
2023-05-09T07:50:41.104Z,18.49
2023-05-09T07:53:42.619Z,18.82
2023-05-09T07:56:44.162Z,18.91
2023-05-09T07:59:45.612Z,19.11
2023-05-09T08:02:47.191Z,19.26
2023-05-09T08:05:48.819Z,19.38
2023-05-09T08:08:50.315Z,19.37
2023-05-09T08:11:52.074Z,19.23
2023-05-09T08:14:53.589Z,18.99
2023-05-09T08:18:10.024Z,18.92
2023-05-09T08:21:11.676Z,19.13
2023-05-09T08:24:13.540Z,19.39
2023-05-09T08:27:15.618Z,19.64
2023-05-09T08:30:17.266Z,19.70
2023-05-09T08:33:19.087Z,19.86
2023-05-09T08:36:20.635Z,19.99
2023-05-09T08:39:22.506Z,20.11
2023-05-09T08:42:26.636Z,20.00
2023-05-09T08:45:30.419Z,20.25
2023-05-09T08:48:36.011Z,20.49
2023-05-09T08:51:38.153Z,20.45
2023-05-09T08:54:40.059Z,20.53
2023-05-09T08:57:41.724Z,20.43
2023-05-09T09:00:43.416Z,20.30
2023-05-09T09:03:49.396Z,20.28
2023-05-09T09:06:53.700Z,20.25
2023-05-09T09:09:56.663Z,20.29
2023-05-09T09:12:59.808Z,20.33
2023-05-09T09:16:02.079Z,20.43
2023-05-09T09:19:09.048Z,20.72
2023-05-09T09:22:15.642Z,20.81
2023-05-09T09:25:17.304Z,20.89
2023-05-09T09:28:18.875Z,21.06
2023-05-09T09:31:28.278Z,21.03
2023-05-09T09:34:29.828Z,21.11
2023-05-09T09:37:34.326Z,21.07
2023-05-09T09:40:39.241Z,21.03
2023-05-09T09:43:46.089Z,21.16
2023-05-09T09:46:52.574Z,21.39
2023-05-09T09:49:54.070Z,21.73
2023-05-09T09:52:56.508Z,21.90
2023-05-09T09:55:58.455Z,21.92
2023-05-09T09:59:09.527Z,21.92
2023-05-09T10:02:12.513Z,21.92
2023-05-09T10:05:23.166Z,22.19
2023-05-09T10:08:24.907Z,22.42
2023-05-09T10:11:26.400Z,22.24
2023-05-09T10:14:28.029Z,22.34
2023-05-09T10:17:31.682Z,22.15
2023-05-09T10:20:33.691Z,22.23
2023-05-09T10:23:38.338Z,22.04
2023-05-09T10:26:45.382Z,21.82
2023-05-09T10:29:52.107Z,21.88
2023-05-09T10:33:08.240Z,21.80
2023-05-09T10:36:10.529Z,21.69
2023-05-09T10:39:12.528Z,21.47
2023-05-09T10:42:14.386Z,21.42
2023-05-09T10:45:16.147Z,21.35
2023-05-09T10:48:18.385Z,21.29
2023-05-09T10:51:19.999Z,21.49
2023-05-09T10:54:31.063Z,21.65
2023-05-09T10:57:32.852Z,22.02
2023-05-09T11:00:34.430Z,22.62
2023-05-09T11:04:08.434Z,23.15
2023-05-09T11:07:26.928Z,23.28
2023-05-09T11:10:42.381Z,23.35
2023-05-09T11:13:46.334Z,23.09
2023-05-09T11:16:58.759Z,23.56
2023-05-09T11:20:03.718Z,23.33
2023-05-09T11:23:06.730Z,23.44
2023-05-09T11:26:09.099Z,23.31
2023-05-09T11:29:10.662Z,23.58
2023-05-09T11:32:15.746Z,23.22
2023-05-09T11:35:20.714Z,23.39
2023-05-09T11:38:23.018Z,23.36
2023-05-09T11:41:24.652Z,23.63
2023-05-09T11:44:28.098Z,24.10
2023-05-09T11:47:30.844Z,23.79
2023-05-09T11:50:32.752Z,23.43
2023-05-09T11:53:34.413Z,23.76
2023-05-09T11:56:39.649Z,24.17
2023-05-09T11:59:41.239Z,24.46
2023-05-09T12:02:44.378Z,24.78
2023-05-09T12:05:48.350Z,24.76
2023-05-09T12:08:49.951Z,24.71
2023-05-09T12:11:51.932Z,24.64
2023-05-09T12:14:53.412Z,24.67
2023-05-09T12:18:03.974Z,24.62
2023-05-09T12:21:07.187Z,24.66
2023-05-09T12:24:08.816Z,24.46
2023-05-09T12:27:10.496Z,24.40
2023-05-09T12:30:14.127Z,24.56
2023-05-09T12:33:16.108Z,24.66
2023-05-09T12:36:17.608Z,25.05
2023-05-09T12:39:22.414Z,24.99
2023-05-09T12:42:26.780Z,24.96
2023-05-09T12:45:28.525Z,25.17
2023-05-09T12:48:35.156Z,25.19
2023-05-09T12:51:36.592Z,25.03
2023-05-09T12:54:38.091Z,25.20
2023-05-09T12:57:40.653Z,25.14
2023-05-09T13:00:43.996Z,25.42
2023-05-09T13:03:51.826Z,25.47
2023-05-09T13:06:55.709Z,25.29
2023-05-09T13:09:57.357Z,25.06
2023-05-09T13:12:58.937Z,24.84
2023-05-09T13:16:00.568Z,24.85
2023-05-09T13:19:02.261Z,24.67
2023-05-09T13:22:03.776Z,24.27
2023-05-09T13:25:06.132Z,24.04
2023-05-09T13:28:08.725Z,23.59
2023-05-09T13:31:10.428Z,23.23
2023-05-09T13:34:11.926Z,23.03
2023-05-09T13:37:13.470Z,22.96
2023-05-09T13:40:15.351Z,22.75
2023-05-09T13:43:17.173Z,22.75
2023-05-09T13:46:18.781Z,22.83
2023-05-09T13:49:20.380Z,23.02
2023-05-09T13:52:22.106Z,22.97
2023-05-09T13:55:25.942Z,23.01
2023-05-09T13:58:27.466Z,22.95
2023-05-09T14:01:28.990Z,22.54
2023-05-09T14:04:34.379Z,22.24
2023-05-09T14:07:36.202Z,21.87
2023-05-09T14:10:37.748Z,21.64
2023-05-09T14:13:39.290Z,21.24
2023-05-09T14:16:40.784Z,20.82
2023-05-09T14:19:42.319Z,20.65
2023-05-09T14:22:43.833Z,20.63
2023-05-09T14:25:45.338Z,20.46
2023-05-09T14:28:46.943Z,20.26
2023-05-09T14:31:48.434Z,20.10
2023-05-09T14:34:50.022Z,19.93
2023-05-09T14:37:51.490Z,19.67
2023-05-09T14:40:52.977Z,19.49
2023-05-09T14:43:54.486Z,19.36
2023-05-09T14:46:56.391Z,19.15
2023-05-09T14:49:57.873Z,19.00
2023-05-09T14:53:00.892Z,18.99
2023-05-09T14:56:02.511Z,18.90
2023-05-09T14:59:04.236Z,18.63
2023-05-09T15:02:05.757Z,17.86
2023-05-09T15:05:08.187Z,16.38
2023-05-09T15:08:09.660Z,16.13
2023-05-09T15:11:11.199Z,16.11
2023-05-09T15:14:12.755Z,16.20
2023-05-09T15:17:14.412Z,16.14
2023-05-09T15:20:18.170Z,16.08
2023-05-09T15:23:20.301Z,16.30
2023-05-09T15:26:22.336Z,16.49
2023-05-09T15:29:23.758Z,16.63
2023-05-09T15:32:25.262Z,16.71
2023-05-09T15:35:26.874Z,16.88
2023-05-09T15:38:28.747Z,17.06
2023-05-09T15:41:30.540Z,17.00
2023-05-09T15:44:32.086Z,17.02
2023-05-09T15:47:33.812Z,16.88
2023-05-09T15:50:35.263Z,16.58
2023-05-09T15:53:36.852Z,16.00
2023-05-09T15:56:38.418Z,15.10
2023-05-09T15:59:40.118Z,14.89
2023-05-09T16:02:44.034Z,14.67
2023-05-09T16:05:45.882Z,14.31
2023-05-09T16:08:47.690Z,14.00
2023-05-09T16:11:49.178Z,13.89
2023-05-09T16:14:50.674Z,13.98
2023-05-09T16:17:52.224Z,13.94
2023-05-09T16:20:53.717Z,13.99
2023-05-09T16:23:57.768Z,14.03
2023-05-09T16:26:59.252Z,14.06
2023-05-09T16:30:00.879Z,13.97
2023-05-09T16:33:02.484Z,13.99
2023-05-09T16:36:04.313Z,13.90
2023-05-09T16:39:05.890Z,13.95
2023-05-09T16:42:07.369Z,13.90
2023-05-09T16:45:09.096Z,13.91
2023-05-09T16:48:10.706Z,13.89
2023-05-09T16:51:12.277Z,13.93
2023-05-09T16:54:13.776Z,13.98
2023-05-09T16:57:15.213Z,14.03
2023-05-09T17:00:17.648Z,14.17
2023-05-09T17:03:19.255Z,14.31
2023-05-09T17:06:20.826Z,14.35
2023-05-09T17:09:22.514Z,14.38
2023-05-09T17:12:24.495Z,14.46
2023-05-09T17:15:26.865Z,14.49
2023-05-09T17:18:36.643Z,14.54
2023-05-09T17:21:41.731Z,14.56
2023-05-09T17:24:43.964Z,14.64
2023-05-09T17:27:45.669Z,14.55
2023-05-09T17:30:47.129Z,14.60
2023-05-09T17:33:48.681Z,14.64
2023-05-09T17:36:50.228Z,14.64
2023-05-09T17:39:51.825Z,14.59
2023-05-09T17:42:53.410Z,14.56
2023-05-09T17:45:55.140Z,14.59
2023-05-09T17:48:56.667Z,14.59
2023-05-09T17:51:58.475Z,14.51
2023-05-09T17:55:01.020Z,14.40
2023-05-09T17:58:02.505Z,14.26
2023-05-09T18:01:04.043Z,14.23
2023-05-09T18:04:06.327Z,14.25
2023-05-09T18:07:08.461Z,14.13
2023-05-09T18:10:10.390Z,14.11
2023-05-09T18:13:12.231Z,14.12
2023-05-09T18:16:13.872Z,14.17
2023-05-09T18:19:15.486Z,14.18
2023-05-09T18:22:19.219Z,14.24
2023-05-09T18:25:20.819Z,14.21
2023-05-09T18:28:25.649Z,14.12
2023-05-09T18:31:27.668Z,13.95
2023-05-09T18:34:30.284Z,13.92
2023-05-09T18:37:31.844Z,13.89
2023-05-09T18:40:33.408Z,13.82
2023-05-09T18:43:35.907Z,13.75
2023-05-09T18:46:37.960Z,13.74
2023-05-09T18:49:39.449Z,13.71
2023-05-09T18:52:41.057Z,13.75
2023-05-09T18:55:42.786Z,13.78
2023-05-09T18:58:44.447Z,13.83
2023-05-09T19:01:45.978Z,13.84
2023-05-09T19:04:48.111Z,13.83
2023-05-09T19:07:49.854Z,13.70
2023-05-09T19:10:51.362Z,13.69
2023-05-09T19:13:53.579Z,13.62
2023-05-09T19:16:55.090Z,13.56
2023-05-09T19:19:56.918Z,13.60
2023-05-09T19:22:58.993Z,13.66
2023-05-09T19:26:00.596Z,13.67
2023-05-09T19:29:07.626Z,13.56
2023-05-09T19:32:09.096Z,13.55
2023-05-09T19:35:10.902Z,13.61
2023-05-09T19:38:12.507Z,13.71
2023-05-09T19:41:14.066Z,13.66
2023-05-09T19:44:15.562Z,13.63
2023-05-09T19:47:17.042Z,13.57
2023-05-09T19:50:18.802Z,13.56
2023-05-09T19:53:20.352Z,13.62
2023-05-09T19:56:23.143Z,13.58
2023-05-09T19:59:24.697Z,13.53
2023-05-09T20:02:26.530Z,13.50
2023-05-09T20:05:28.129Z,13.48
2023-05-09T20:08:29.997Z,13.47
2023-05-09T20:11:31.616Z,13.57
2023-05-09T20:14:33.139Z,13.54
2023-05-09T20:17:34.729Z,13.43
2023-05-09T20:20:38.247Z,13.38
2023-05-09T20:23:39.801Z,13.42
2023-05-09T20:26:41.350Z,13.39
2023-05-09T20:29:42.989Z,13.35
2023-05-09T20:32:44.638Z,13.34
2023-05-09T20:35:49.175Z,13.40
2023-05-09T20:38:50.704Z,13.38
2023-05-09T20:41:52.332Z,13.32
2023-05-09T20:44:54.774Z,13.34
2023-05-09T20:47:56.596Z,13.36
2023-05-09T20:50:58.146Z,13.32
2023-05-09T20:54:00.035Z,13.36
2023-05-09T20:57:01.524Z,13.35
2023-05-09T21:00:03.832Z,13.36
2023-05-09T21:03:07.431Z,13.32
2023-05-09T21:06:09.138Z,13.32
2023-05-09T21:09:11.208Z,13.31
2023-05-09T21:12:12.703Z,13.30
2023-05-09T21:15:14.707Z,13.26
2023-05-09T21:18:16.526Z,13.31
2023-05-09T21:21:17.988Z,13.29
2023-05-09T21:24:19.463Z,13.27
2023-05-09T21:27:20.913Z,13.26
2023-05-09T21:30:22.510Z,13.24
2023-05-09T21:33:23.947Z,13.21
2023-05-09T21:36:25.693Z,13.19
2023-05-09T21:39:27.132Z,13.22
2023-05-09T21:42:28.549Z,13.23
2023-05-09T21:45:30.361Z,13.18
2023-05-09T21:48:31.848Z,13.21
2023-05-09T21:51:34.077Z,13.21
2023-05-09T21:54:35.582Z,13.19
2023-05-09T21:57:37.054Z,13.22
2023-05-09T22:00:38.563Z,13.25
2023-05-09T22:03:40.170Z,13.26
2023-05-09T22:06:42.690Z,13.31
2023-05-09T22:09:44.134Z,13.34
2023-05-09T22:12:46.007Z,13.31
2023-05-09T22:15:47.522Z,13.28
2023-05-09T22:18:49.102Z,13.23
2023-05-09T22:21:50.584Z,13.15
2023-05-09T22:24:52.201Z,13.10
2023-05-09T22:27:54.913Z,13.03
2023-05-09T22:30:56.940Z,12.98
2023-05-09T22:33:58.394Z,12.94
2023-05-09T22:36:59.800Z,12.90
2023-05-09T22:40:01.487Z,12.88
2023-05-09T22:43:03.341Z,12.79
2023-05-09T22:46:05.029Z,12.82
2023-05-09T22:49:06.844Z,12.87
2023-05-09T22:52:09.064Z,12.86
2023-05-09T22:55:11.310Z,12.87
2023-05-09T22:58:12.945Z,12.85
2023-05-09T23:01:14.413Z,12.81
2023-05-09T23:04:16.891Z,12.79
2023-05-09T23:07:18.382Z,12.81
2023-05-09T23:10:19.850Z,12.79
2023-05-09T23:13:21.369Z,12.78
2023-05-09T23:16:23.138Z,12.74
2023-05-09T23:19:24.884Z,12.72
2023-05-09T23:22:26.448Z,12.71
2023-05-09T23:25:27.906Z,12.74
2023-05-09T23:28:29.378Z,12.72
2023-05-09T23:31:30.942Z,12.67
2023-05-09T23:34:32.492Z,12.62
2023-05-09T23:37:34.079Z,12.55
2023-05-09T23:40:35.611Z,12.55
2023-05-09T23:43:37.686Z,12.49
2023-05-09T23:46:39.245Z,12.48
2023-05-09T23:49:41.191Z,12.44
2023-05-09T23:52:42.665Z,12.38
2023-05-09T23:55:44.167Z,12.29
2023-05-09T23:58:45.697Z,12.31
